Time;durP1;ratioP1;P1;durP2;ratioP2;P2;SDS_P1;SDS_P2;PMS_P1;PMS_P2;Temp;Humidity;BMP_temperature;BMP_pressure;BME280_temperature;BME280_humidity;BME280_pressure;Samples;Min_cycle;Max_cycle;Signal;HPM_P1;HPM_P2
2023/10/20 00:00:40;;;;;;;12.98;7.38;;;;;;;11.73;100.00;94784.88;5044620;28;20041;-62
2023/10/20 00:03:07;;;;;;;12.52;7.97;;;;;;;11.68;100.00;94791.25;5045584;28;20127;-62
2023/10/20 00:05:34;;;;;;;11.82;8.13;;;;;;;11.70;100.00;94797.16;5046027;28;20041;-62
2023/10/20 00:08:02;;;;;;;13.82;8.77;;;;;;;11.68;100.00;94797.47;5047550;28;20053;-62
2023/10/20 00:10:35;;;;;;;13.05;7.90;;;;;;;11.69;100.00;94796.34;5044081;28;20656;-61
2023/10/20 00:13:02;;;;;;;14.15;8.38;;;;;;;11.76;100.00;94805.91;5042756;28;20041;-61
2023/10/20 00:15:29;;;;;;;12.82;7.82;;;;;;;11.78;100.00;94801.75;5043534;28;20048;-62
2023/10/20 00:17:56;;;;;;;15.85;7.90;;;;;;;11.85;100.00;94812.09;5048818;28;20492;-61
2023/10/20 00:20:22;;;;;;;12.95;7.50;;;;;;;11.87;100.00;94801.72;5045632;28;20041;-62
2023/10/20 00:22:49;;;;;;;10.32;7.25;;;;;;;11.86;100.00;94810.19;5044693;28;20044;-63
2023/10/20 00:25:17;;;;;;;13.15;7.28;;;;;;;11.88;100.00;94802.53;5046717;28;20554;-62
2023/10/20 00:27:45;;;;;;;13.60;7.95;;;;;;;11.89;100.00;94806.81;5051288;28;20037;-63
2023/10/20 00:30:11;;;;;;;9.77;6.97;;;;;;;11.96;100.00;94793.56;5042088;28;20059;-62
2023/10/20 00:32:42;;;;;;;12.55;7.78;;;;;;;11.99;100.00;94789.41;5042871;28;20694;-62
2023/10/20 00:35:10;;;;;;;10.10;7.38;;;;;;;11.97;100.00;94771.56;5048734;28;20048;-63
2023/10/20 00:37:36;;;;;;;11.05;7.90;;;;;;;12.03;100.00;94761.31;5048662;28;20041;-63
2023/10/20 00:40:07;;;;;;;10.40;7.25;;;;;;;12.03;100.00;94752.38;5050494;28;20044;-62
2023/10/20 00:42:35;;;;;;;13.48;8.13;;;;;;;12.05;100.00;94761.81;5045249;28;20129;-62
2023/10/20 00:45:02;;;;;;;14.32;8.52;;;;;;;12.07;100.00;94756.06;5042711;28;20041;-62
2023/10/20 00:47:29;;;;;;;10.65;7.50;;;;;;;12.12;100.00;94755.09;5042485;28;20064;-62
2023/10/20 00:49:57;;;;;;;11.75;7.72;;;;;;;12.15;100.00;94751.72;5042568;28;20504;-62
2023/10/20 00:52:25;;;;;;;10.13;7.38;;;;;;;12.23;100.00;94750.88;5045576;28;20515;-63
2023/10/20 00:54:53;;;;;;;11.57;6.88;;;;;;;12.20;100.00;94727.91;5040584;28;20083;-62
2023/10/20 00:57:19;;;;;;;10.63;7.97;;;;;;;12.17;100.00;94711.50;5045585;28;20036;-62
2023/10/20 00:59:46;;;;;;;11.35;6.65;;;;;;;12.17;100.00;94704.16;5049561;28;20048;-62
2023/10/20 01:02:12;;;;;;;8.73;6.43;;;;;;;12.18;100.00;94704.94;5042555;28;20720;-63
2023/10/20 01:04:39;;;;;;;12.40;7.60;;;;;;;12.15;100.00;94681.19;5043016;28;20036;-63
2023/10/20 01:07:06;;;;;;;10.88;6.85;;;;;;;12.16;100.00;94677.38;5046309;28;20048;-61
2023/10/20 01:09:32;;;;;;;9.82;6.80;;;;;;;12.24;100.00;94700.94;5042009;28;20566;-62
2023/10/20 01:11:59;;;;;;;9.85;6.80;;;;;;;12.29;100.00;94699.94;5040409;28;20052;-63
2023/10/20 01:14:25;;;;;;;9.75;5.70;;;;;;;12.25;100.00;94674.59;5048223;28;20047;-62
2023/10/20 01:16:52;;;;;;;11.20;6.70;;;;;;;12.23;100.00;94664.06;5048246;28;20114;-62
2023/10/20 01:19:19;;;;;;;9.57;6.43;;;;;;;12.23;100.00;94654.03;5041474;28;20532;-62
2023/10/20 01:21:46;;;;;;;9.10;5.85;;;;;;;12.27;100.00;94646.00;5050793;28;20056;-63
2023/10/20 01:24:12;;;;;;;7.22;5.00;;;;;;;12.34;100.00;94638.13;5046042;28;20049;-63
2023/10/20 01:26:39;;;;;;;7.25;4.75;;;;;;;12.39;100.00;94639.88;5050658;28;20515;-62
2023/10/20 01:29:09;;;;;;;8.43;4.82;;;;;;;12.39;100.00;94612.75;5041650;28;20071;-62
2023/10/20 01:31:36;;;;;;;11.52;5.95;;;;;;;12.28;100.00;94587.13;5050375;28;20049;-62
2023/10/20 01:34:03;;;;;;;10.55;7.28;;;;;;;12.17;100.00;94584.78;5059198;28;20076;-62
2023/10/20 01:36:29;;;;;;;8.23;5.90;;;;;;;12.20;100.00;94591.50;5054110;28;20624;-62
2023/10/20 01:38:56;;;;;;;9.13;5.97;;;;;;;12.11;100.00;94578.00;5046664;28;20055;-63
2023/10/20 01:41:23;;;;;;;9.70;6.32;;;;;;;12.10;100.00;94590.75;5046659;28;20090;-62
2023/10/20 01:43:49;;;;;;;9.48;6.05;;;;;;;12.09;100.00;94600.03;5048699;28;20774;-63
2023/10/20 01:46:16;;;;;;;8.40;6.00;;;;;;;12.09;100.00;94591.88;5039752;28;20052;-63
2023/10/20 01:48:42;;;;;;;9.82;6.10;;;;;;;12.10;100.00;94579.91;5039555;28;20045;-63
2023/10/20 01:51:09;;;;;;;7.68;5.30;;;;;;;12.12;100.00;94568.72;5018663;28;20044;-63
2023/10/20 01:53:36;;;;;;;7.35;5.38;;;;;;;12.12;100.00;94557.88;5007509;28;20168;-62
2023/10/20 01:56:03;;;;;;;11.95;6.03;;;;;;;12.13;100.00;94547.84;5030080;28;20044;-62
2023/10/20 01:58:30;;;;;;;8.38;5.53;;;;;;;12.13;100.00;94537.78;5051320;28;20102;-63
2023/10/20 02:00:57;;;;;;;10.02;5.70;;;;;;;12.07;100.00;94518.22;5045013;28;20045;-64
2023/10/20 02:03:24;;;;;;;8.80;6.35;;;;;;;12.02;100.00;94499.38;5047787;28;20080;-63
2023/10/20 02:05:51;;;;;;;11.40;6.28;;;;;;;11.90;100.00;94510.19;5052418;28;20128;-63
2023/10/20 02:08:18;;;;;;;8.95;6.20;;;;;;;11.89;100.00;94501.25;5043991;28;20606;-63
2023/10/20 02:10:45;;;;;;;12.60;6.82;;;;;;;11.87;100.00;94508.91;5044418;28;20057;-63
2023/10/20 02:13:11;;;;;;;10.32;6.50;;;;;;;11.82;100.00;94514.53;5048278;28;20042;-63
2023/10/20 02:15:38;;;;;;;10.35;6.72;;;;;;;11.75;100.00;94509.66;5051250;28;20044;-63
2023/10/20 02:18:06;;;;;;;9.98;6.72;;;;;;;11.71;100.00;94514.13;5048221;28;20060;-63
2023/10/20 02:20:33;;;;;;;8.30;5.07;;;;;;;11.74;100.00;94507.25;5050881;28;20045;-63
2023/10/20 02:23:00;;;;;;;9.18;6.60;;;;;;;11.75;100.00;94508.88;5043844;28;20039;-63
2023/10/20 02:25:26;;;;;;;9.75;5.97;;;;;;;11.75;100.00;94504.22;5051335;28;20040;-63
2023/10/20 02:27:53;;;;;;;9.20;6.18;;;;;;;11.75;100.00;94498.81;5044184;28;20060;-62
2023/10/20 02:30:20;;;;;;;10.27;6.20;;;;;;;11.70;100.00;94488.16;5053108;28;20036;-62
2023/10/20 02:32:46;;;;;;;9.18;5.97;;;;;;;11.67;100.00;94481.50;5044952;28;20114;-62
2023/10/20 02:35:13;;;;;;;10.07;5.88;;;;;;;11.67;100.00;94486.91;5050467;28;20047;-63
2023/10/20 02:37:40;;;;;;;11.98;6.35;;;;;;;11.65;100.00;94486.44;5042788;28;20069;-62
2023/10/20 02:40:07;;;;;;;9.27;6.15;;;;;;;11.63;100.00;94485.19;5051263;28;20051;-62
2023/10/20 02:42:34;;;;;;;9.35;5.63;;;;;;;11.64;100.00;94492.97;5050530;28;20090;-62
2023/10/20 02:45:00;;;;;;;10.13;6.40;;;;;;;11.66;100.00;94501.59;5050817;28;20049;-63
2023/10/20 02:47:27;;;;;;;9.45;6.28;;;;;;;11.64;100.00;94505.75;5049589;28;20047;-63
2023/10/20 02:49:58;;;;;;;11.57;5.68;;;;;;;11.56;100.00;94505.47;5048297;28;20091;-62
2023/10/20 02:52:26;;;;;;;8.18;5.35;;;;;;;11.57;100.00;94517.09;5056413;28;20036;-63
2023/10/20 02:54:53;;;;;;;8.38;5.82;;;;;;;11.64;100.00;94522.00;5043982;28;20040;-62
2023/10/20 02:57:20;;;;;;;10.07;6.78;;;;;;;11.68;100.00;94529.13;5048248;28;20032;-63
2023/10/20 02:59:48;;;;;;;9.70;6.88;;;;;;;11.67;100.00;94529.47;5050898;28;20404;-62
2023/10/20 03:02:20;;;;;;;12.30;6.70;;;;;;;11.67;100.00;94543.81;5042758;28;20519;-63
2023/10/20 03:04:47;;;;;;;12.18;7.63;;;;;;;11.63;100.00;94550.22;5041652;28;20124;-63
2023/10/20 03:07:13;;;;;;;10.68;7.15;;;;;;;11.64;100.00;94552.59;5045866;28;20033;-63
2023/10/20 03:09:40;;;;;;;10.27;7.10;;;;;;;11.68;100.00;94544.59;5050911;28;20417;-63
2023/10/20 03:12:06;;;;;;;10.70;6.90;;;;;;;11.70;100.00;94531.53;5049159;28;20055;-63
2023/10/20 03:14:34;;;;;;;12.63;6.72;;;;;;;11.74;100.00;94518.91;5061142;28;20040;-63
2023/10/20 03:17:01;;;;;;;12.95;7.20;;;;;;;11.76;100.00;94505.81;5044725;28;20146;-62
2023/10/20 03:19:28;;;;;;;11.88;7.57;;;;;;;11.71;100.00;94487.03;5044291;28;20060;-62
2023/10/20 03:21:55;;;;;;;10.80;6.75;;;;;;;11.74;100.00;94483.66;5048004;28;20120;-64
2023/10/20 03:24:21;;;;;;;8.52;5.80;;;;;;;11.78;100.00;94483.78;5043524;28;20131;-63
2023/10/20 03:26:48;;;;;;;14.35;7.13;;;;;;;11.74;100.00;94480.97;5044410;28;20150;-63
2023/10/20 03:29:15;;;;;;;9.30;5.65;;;;;;;11.78;100.00;94475.66;5044938;28;20049;-63
2023/10/20 03:31:42;;;;;;;9.63;5.40;;;;;;;11.80;100.00;94465.28;5047978;28;20047;-63
2023/10/20 03:34:09;;;;;;;8.43;4.82;;;;;;;11.84;100.00;94449.94;5049387;28;20068;-63
2023/10/20 03:36:35;;;;;;;10.40;5.80;;;;;;;11.79;100.00;94431.19;5050717;28;20455;-63
2023/10/20 03:39:02;;;;;;;11.40;6.32;;;;;;;11.79;100.00;94415.69;5046902;28;20044;-63
2023/10/20 03:41:29;;;;;;;8.63;5.47;;;;;;;11.82;100.00;94406.91;5048013;28;20496;-63
2023/10/20 03:43:55;;;;;;;7.78;5.10;;;;;;;11.83;100.00;94400.34;5045037;28;20037;-63
2023/10/20 03:46:23;;;;;;;9.75;5.97;;;;;;;11.81;100.00;94391.78;5037003;28;20067;-63
2023/10/20 03:48:50;;;;;;;10.93;6.38;;;;;;;11.77;100.00;94371.88;5040235;28;20494;-62
2023/10/20 03:51:17;;;;;;;9.65;6.25;;;;;;;11.75;100.00;94365.97;5022786;28;20090;-62
2023/10/20 03:53:47;;;;;;;7.38;4.88;;;;;;;11.79;100.00;94366.13;5041670;28;20049;-63
2023/10/20 03:56:14;;;;;;;9.50;5.65;;;;;;;11.81;100.00;94364.66;5040083;28;20593;-64
2023/10/20 03:58:42;;;;;;;11.00;4.80;;;;;;;11.83;100.00;94356.16;5043806;28;20037;-63
2023/10/20 04:01:09;;;;;;;10.98;6.40;;;;;;;11.82;100.00;94349.97;5043940;28;20047;-62
2023/10/20 04:03:35;;;;;;;10.85;5.60;;;;;;;11.81;100.00;94342.97;5052329;28;20055;-62
2023/10/20 04:06:06;;;;;;;8.73;5.30;;;;;;;11.82;100.00;94341.84;5049895;28;20041;-63
2023/10/20 04:08:34;;;;;;;9.85;5.72;;;;;;;11.90;100.00;94331.25;5051465;28;20070;-63
2023/10/20 04:11:01;;;;;;;8.05;6.05;;;;;;;11.93;100.00;94335.97;5044661;28;20041;-63
2023/10/20 04:13:32;;;;;;;9.38;6.07;;;;;;;11.93;100.00;94334.06;5047568;28;20057;-62
2023/10/20 04:16:12;;;;;;;8.68;6.40;;;;;;;11.92;100.00;94324.38;5042703;28;20116;-63
2023/10/20 04:18:43;;;;;;;7.80;5.22;;;;;;;11.94;100.00;94313.19;5045649;28;20072;-63
2023/10/20 04:21:13;;;;;;;7.88;4.82;;;;;;;12.01;100.00;94282.81;5042578;28;20116;-63
2023/10/20 04:23:40;;;;;;;9.48;4.32;;;;;;;12.10;100.00;94257.16;5049469;28;20533;-63
2023/10/20 04:26:20;;;;;;;6.95;4.13;;;;;;;12.09;100.00;94238.56;5042841;28;20037;-63
2023/10/20 04:28:51;;;;;;;9.75;4.50;;;;;;;12.02;100.00;94205.75;5050426;28;20036;-63
2023/10/20 04:52:57;;;;;;;8.82;5.15;;;;;;;11.93;100.00;94140.78;5042772;28;20666;-62
2023/10/20 04:56:21;;;;;;;8.52;5.63;;;;;;;11.93;100.00;94129.94;5036406;28;20041;-62
2023/10/20 04:58:22;;;;;;;10.82;5.82;;;;;;;11.94;100.00;94113.34;5044744;28;20061;-62
2023/10/20 05:00:59;;;;;;;7.22;5.38;;;;;;;11.96;100.00;94099.44;5047006;28;20045;-62
2023/10/20 05:03:45;;;;;;;8.82;6.07;;;;;;;11.87;100.00;94074.38;5050483;28;20538;-62
2023/10/20 05:06:22;;;;;;;9.23;5.20;;;;;;;11.86;100.00;94061.97;5060999;28;20419;-62
2023/10/20 05:08:49;;;;;;;10.13;5.93;;;;;;;11.82;100.00;94051.81;5049111;28;20033;-61
2023/10/20 05:11:16;;;;;;;9.10;5.15;;;;;;;11.81;100.00;94047.50;5048434;28;20045;-62
2023/10/20 05:13:42;;;;;;;9.75;6.28;;;;;;;11.83;100.00;94045.25;5051883;28;20150;-62
2023/10/20 05:16:09;;;;;;;9.77;6.03;;;;;;;11.84;100.00;94033.25;5048010;28;20052;-61
2023/10/20 05:18:40;;;;;;;8.20;5.65;;;;;;;11.84;100.00;94024.34;5050192;28;20072;-62
2023/10/20 05:21:12;;;;;;;8.15;6.00;;;;;;;11.84;100.00;94013.50;5047027;28;20691;-62
2023/10/20 05:23:39;;;;;;;7.97;5.25;;;;;;;11.84;100.00;93999.97;5050541;28;20142;-62
2023/10/20 05:26:09;;;;;;;8.48;5.82;;;;;;;11.83;100.00;93993.75;5051185;28;20072;-62
2023/10/20 05:28:35;;;;;;;10.95;5.85;;;;;;;11.84;100.00;93980.97;5049324;28;20229;-62
2023/10/20 05:31:02;;;;;;;9.75;5.47;;;;;;;11.80;100.00;93972.72;5049453;28;20095;-62
2023/10/20 05:33:29;;;;;;;7.97;5.45;;;;;;;11.80;100.00;93969.25;5050737;28;20053;-62
2023/10/20 05:36:02;;;;;;;6.85;4.72;;;;;;;11.80;100.00;93955.69;5043870;28;20597;-63
2023/10/20 05:38:28;;;;;;;8.68;5.50;;;;;;;11.83;100.00;93957.69;5039221;28;20044;-62
2023/10/20 05:40:58;;;;;;;11.43;5.35;;;;;;;11.80;100.00;93940.22;5051450;28;20048;-61
2023/10/20 05:43:25;;;;;;;10.30;6.55;;;;;;;11.79;100.00;93918.91;5045930;28;20049;-62
2023/10/20 05:45:51;;;;;;;11.20;6.47;;;;;;;11.76;100.00;93895.97;5045219;28;20049;-62
2023/10/20 05:48:18;;;;;;;7.57;5.90;;;;;;;11.74;100.00;93903.66;5044941;28;20048;-62
2023/10/20 05:50:45;;;;;;;8.65;4.65;;;;;;;11.74;100.00;93919.13;5058893;28;20052;-62
2023/10/20 05:53:12;;;;;;;9.40;6.03;;;;;;;11.73;100.00;93940.03;5046529;28;20073;-62
2023/10/20 05:55:38;;;;;;;8.63;5.80;;;;;;;11.72;100.00;93941.13;5044652;28;20057;-63
2023/10/20 05:58:06;;;;;;;8.68;5.90;;;;;;;11.68;100.00;93922.06;5047232;28;20044;-62
2023/10/20 06:00:33;;;;;;;8.77;5.30;;;;;;;11.71;100.00;93909.75;5048941;28;20535;-62
2023/10/20 06:03:18;;;;;;;7.55;5.07;;;;;;;11.69;100.00;93917.47;5050652;28;20037;-63
2023/10/20 06:05:45;;;;;;;9.18;5.90;;;;;;;11.69;100.00;93918.22;5051427;28;20090;-62
2023/10/20 06:08:12;;;;;;;10.55;6.43;;;;;;;11.73;100.00;93898.56;5048711;28;20186;-62
2023/10/20 06:10:38;;;;;;;13.88;6.65;;;;;;;11.73;100.00;93876.91;5044237;28;20045;-62
2023/10/20 06:13:05;;;;;;;9.63;6.32;;;;;;;11.70;100.00;93864.84;5042384;28;20103;-62
2023/10/20 06:15:31;;;;;;;9.57;5.97;;;;;;;11.71;100.00;93850.94;5046118;28;20768;-61
2023/10/20 06:17:58;;;;;;;12.10;5.95;;;;;;;11.73;100.00;93825.41;5048934;28;20041;-62
2023/10/20 06:20:25;;;;;;;10.75;5.97;;;;;;;11.74;100.00;93808.81;5044103;28;20045;-62
2023/10/20 06:22:51;;;;;;;8.82;5.55;;;;;;;11.64;100.00;93798.47;5046715;28;20189;-62
2023/10/20 06:25:18;;;;;;;9.10;5.93;;;;;;;11.67;100.00;93805.91;5050337;28;20049;-62
2023/10/20 06:27:45;;;;;;;11.82;6.43;;;;;;;11.67;100.00;93817.53;5043320;28;20053;-61
2023/10/20 06:30:21;;;;;;;10.20;5.68;;;;;;;11.62;100.00;93817.00;5049358;28;20042;-61
2023/10/20 06:32:56;;;;;;;9.07;6.30;;;;;;;11.63;100.00;93813.16;5044580;28;20480;-61
2023/10/20 06:35:32;;;;;;;10.45;5.45;;;;;;;11.58;100.00;93806.06;5043517;28;20861;-62
2023/10/20 06:40:35;;;;;;;8.18;5.60;;;;;;;11.63;100.00;93767.09;5046478;28;20052;-63
2023/10/20 06:43:02;;;;;;;12.38;5.97;;;;;;;11.61;100.00;93751.16;5048181;28;20557;-63
2023/10/20 06:45:30;;;;;;;9.50;5.40;;;;;;;11.66;100.00;93750.13;5044994;28;20415;-63
2023/10/20 06:47:57;;;;;;;9.80;5.90;;;;;;;11.67;100.00;93743.56;5046576;28;20886;-64
2023/10/20 06:50:24;;;;;;;12.82;5.80;;;;;;;11.71;100.00;93752.59;5056738;28;20048;-63
2023/10/20 06:52:53;;;;;;;9.80;5.93;;;;;;;11.70;100.00;93749.09;5043571;28;20124;-63
2023/10/20 06:55:19;;;;;;;9.48;5.80;;;;;;;11.71;100.00;93726.28;5050430;28;20047;-63
2023/10/20 06:57:48;;;;;;;7.75;5.32;;;;;;;11.69;100.00;93720.41;5046840;28;20500;-63
2023/10/20 07:00:20;;;;;;;10.45;6.15;;;;;;;11.70;100.00;93697.63;5050738;28;20125;-62
2023/10/20 07:02:47;;;;;;;12.32;6.28;;;;;;;11.70;100.00;93700.31;5043792;28;20145;-63
2023/10/20 07:05:14;;;;;;;11.20;6.55;;;;;;;11.70;100.00;93713.06;5046634;28;20045;-63
2023/10/20 07:07:41;;;;;;;9.27;6.65;;;;;;;11.76;100.00;93708.94;5043129;28;20507;-63
2023/10/20 07:10:10;;;;;;;11.18;6.63;;;;;;;11.86;100.00;93701.47;5051191;28;20546;-63
2023/10/20 07:12:37;;;;;;;10.77;6.60;;;;;;;11.96;100.00;93688.16;5055728;28;20056;-63
2023/10/20 07:15:05;;;;;;;10.13;7.22;;;;;;;11.98;100.00;93687.81;5043090;28;20044;-64
2023/10/20 07:17:32;;;;;;;11.43;6.40;;;;;;;11.99;100.00;93673.09;5053357;28;20654;-64
2023/10/20 07:19:59;;;;;;;10.02;6.55;;;;;;;11.97;100.00;93665.31;5042974;28;20095;-64
2023/10/20 07:22:26;;;;;;;10.20;6.97;;;;;;;11.99;100.00;93659.56;5051400;28;20710;-64
2023/10/20 07:24:55;;;;;;;10.63;7.43;;;;;;;12.03;100.00;93654.19;5051876;28;20044;-64
2023/10/20 07:27:22;;;;;;;12.48;8.07;;;;;;;12.03;100.00;93659.63;5052234;28;20564;-64
2023/10/20 07:29:48;;;;;;;12.13;7.60;;;;;;;12.00;100.00;93661.13;5044153;28;20045;-64
2023/10/20 07:32:16;;;;;;;12.07;8.02;;;;;;;12.06;100.00;93667.09;5048367;28;20520;-64
2023/10/20 07:34:43;;;;;;;13.23;7.82;;;;;;;12.09;100.00;93663.69;5048420;28;20049;-64
2023/10/20 07:37:10;;;;;;;12.27;8.43;;;;;;;12.15;100.00;93658.75;5041440;28;20045;-64
2023/10/20 07:39:37;;;;;;;11.40;7.53;;;;;;;12.21;100.00;93649.97;5049701;28;20053;-64
2023/10/20 07:42:04;;;;;;;10.70;7.57;;;;;;;12.33;100.00;93661.84;5041054;28;20049;-64
2023/10/20 07:44:32;;;;;;;10.40;7.32;;;;;;;12.38;100.00;93652.66;5046991;28;20037;-64
2023/10/20 07:47:00;;;;;;;11.90;8.00;;;;;;;12.44;100.00;93664.78;5041780;28;20041;-64
2023/10/20 07:49:26;;;;;;;10.52;6.72;;;;;;;12.51;100.00;93661.44;5041788;28;20041;-64
2023/10/20 07:51:53;;;;;;;12.43;7.22;;;;;;;12.55;100.00;93654.16;5040334;28;20041;-64
2023/10/20 07:54:20;;;;;;;11.00;7.15;;;;;;;12.60;100.00;93660.09;5042457;28;20526;-64
2023/10/20 07:56:47;;;;;;;10.45;7.25;;;;;;;12.70;100.00;93676.94;5050788;28;20055;-64
2023/10/20 07:59:14;;;;;;;11.02;7.68;;;;;;;12.72;100.00;93670.00;5045082;28;20033;-64
2023/10/20 08:01:41;;;;;;;10.35;7.28;;;;;;;12.75;100.00;93663.09;5050356;28;20664;-64
2023/10/20 08:04:07;;;;;;;12.15;7.07;;;;;;;12.77;100.00;93673.59;5050856;28;20519;-64
2023/10/20 08:06:34;;;;;;;10.27;6.60;;;;;;;12.80;100.00;93662.81;5050655;28;20076;-64
2023/10/20 08:09:02;;;;;;;11.43;7.15;;;;;;;12.84;100.00;93652.81;5056349;28;20047;-64
2023/10/20 08:11:29;;;;;;;9.00;6.47;;;;;;;12.88;100.00;93669.97;5038029;28;20051;-64
2023/10/20 08:13:57;;;;;;;9.80;7.25;;;;;;;12.92;100.00;93669.22;5050527;28;20076;-64
2023/10/20 08:16:24;;;;;;;10.73;6.90;;;;;;;12.94;100.00;93680.53;5043109;28;20482;-64
2023/10/20 08:18:51;;;;;;;9.32;6.53;;;;;;;12.93;100.00;93693.31;5050912;28;20075;-64
2023/10/20 08:21:19;;;;;;;10.80;7.38;;;;;;;12.93;100.00;93693.31;5051533;28;20040;-64
2023/10/20 08:23:46;;;;;;;10.43;7.13;;;;;;;12.94;100.00;93696.81;5043610;28;20095;-64
2023/10/20 08:26:15;;;;;;;11.55;7.53;;;;;;;12.92;100.00;93689.03;5050744;28;20040;-64
2023/10/20 08:28:42;;;;;;;11.38;7.32;;;;;;;12.79;100.00;93714.75;5043529;28;20049;-64
2023/10/20 08:31:12;;;;;;;12.50;8.25;;;;;;;12.72;100.00;93746.00;5052078;28;20037;-64
2023/10/20 08:33:39;;;;;;;9.48;6.88;;;;;;;12.80;100.00;93744.25;5052461;28;20045;-64
2023/10/20 08:36:14;;;;;;;12.45;7.18;;;;;;;12.86;100.00;93742.81;5048844;28;20048;-64
2023/10/20 08:38:47;;;;;;;11.50;7.57;;;;;;;12.90;100.00;93752.97;5055965;28;20049;-64
2023/10/20 08:41:18;;;;;;;11.05;7.15;;;;;;;12.90;100.00;93751.03;5053514;28;20500;-64
2023/10/20 08:43:46;;;;;;;9.95;6.85;;;;;;;12.87;100.00;93773.47;5046686;28;20064;-64
2023/10/20 08:46:15;;;;;;;12.10;7.63;;;;;;;12.92;100.00;93786.78;5046860;28;20037;-64
2023/10/20 08:48:47;;;;;;;9.50;6.63;;;;;;;12.97;100.00;93788.44;5049567;28;20037;-64
2023/10/20 08:51:15;;;;;;;;;;;;;;;13.07;100.00;93795.22;5047743;28;20603;-64
2023/10/20 08:53:44;;;;;;;12.63;6.88;;;;;;;13.09;100.00;93812.72;5045190;28;19974;-64
2023/10/20 08:56:12;;;;;;;9.55;6.55;;;;;;;13.20;100.00;93825.75;5047011;28;20041;-64
2023/10/20 08:58:39;;;;;;;9.68;6.53;;;;;;;13.21;100.00;93814.53;5053618;28;20051;-64
2023/10/20 09:01:06;;;;;;;11.10;7.30;;;;;;;13.21;100.00;93821.88;5045806;28;20039;-64
2023/10/20 09:03:41;;;;;;;8.85;6.20;;;;;;;13.17;100.00;93821.81;5052547;28;20622;-64
2023/10/20 09:06:11;;;;;;;10.25;5.85;;;;;;;13.20;100.00;93839.34;5043551;28;20507;-64
2023/10/20 09:08:38;;;;;;;11.52;6.45;;;;;;;13.30;100.00;93827.88;5045176;28;20037;-64
2023/10/20 09:11:11;;;;;;;11.30;6.43;;;;;;;13.30;100.00;93811.59;5046366;28;20037;-64
2023/10/20 09:13:39;;;;;;;;;;;;;;;13.33;100.00;93807.38;5045814;28;20048;-64
2023/10/20 09:16:09;;;;;;;10.80;6.50;;;;;;;13.28;100.00;93827.47;5047254;28;19920;-64
2023/10/20 09:18:45;;;;;;;10.20;6.25;;;;;;;13.33;100.00;93821.75;5049898;28;20120;-64
2023/10/20 09:21:17;;;;;;;11.43;6.00;;;;;;;13.33;100.00;93818.22;5051859;28;20123;-64
2023/10/20 09:23:56;;;;;;;;;;;;;;;13.37;100.00;93813.66;5049965;28;20637;-64
2023/10/20 09:26:27;;;;;;;8.82;6.78;;;;;;;13.44;100.00;93823.88;5046185;28;19932;-63
2023/10/20 09:28:56;;;;;;;8.45;5.65;;;;;;;13.52;100.00;93821.00;5045345;28;20060;-63
2023/10/20 09:31:24;;;;;;;9.48;6.00;;;;;;;13.60;100.00;93821.91;5052253;28;20049;-64
2023/10/20 09:33:51;;;;;;;8.55;5.38;;;;;;;13.66;100.00;93816.97;5047209;28;20120;-64
2023/10/20 09:36:18;;;;;;;10.25;5.32;;;;;;;13.69;100.00;93813.53;5049076;28;20052;-65
2023/10/20 09:38:51;;;;;;;8.35;5.50;;;;;;;13.82;100.00;93807.94;5046983;28;20048;-64
2023/10/20 09:41:22;;;;;;;9.82;5.85;;;;;;;13.95;100.00;93811.25;5041343;28;20033;-63
2023/10/20 09:43:53;;;;;;;8.45;5.18;;;;;;;14.06;100.00;93839.44;5053013;28;20037;-64
2023/10/20 09:46:43;;;;;;;8.85;5.15;;;;;;;14.11;100.00;93849.25;5046592;28;20049;-63
2023/10/20 09:49:19;;;;;;;8.63;5.40;;;;;;;14.23;100.00;93867.34;5042281;28;20037;-64
2023/10/20 09:51:48;;;;;;;7.68;5.18;;;;;;;14.29;100.00;93884.91;5047212;28;20149;-64
2023/10/20 09:54:18;;;;;;;7.20;5.40;;;;;;;14.33;100.00;93879.56;5042244;28;20555;-64
2023/10/20 09:56:46;;;;;;;7.68;5.20;;;;;;;14.34;100.00;93876.44;5055768;28;20174;-64
2023/10/20 09:59:20;;;;;;;7.97;5.22;;;;;;;14.46;100.00;93869.25;5039950;28;20329;-64
2023/10/20 10:01:47;;;;;;;10.05;4.95;;;;;;;14.53;100.00;93883.78;5054071;28;20131;-64
2023/10/20 10:04:14;;;;;;;9.50;5.78;;;;;;;14.51;100.00;93886.06;5043401;28;20048;-64
2023/10/20 10:06:44;;;;;;;8.75;5.15;;;;;;;14.52;100.00;93897.75;5046276;28;20045;-64
2023/10/20 10:09:15;;;;;;;8.02;4.72;;;;;;;14.52;100.00;93895.81;5048845;28;20661;-64
2023/10/20 10:11:45;;;;;;;6.95;4.72;;;;;;;14.65;100.00;93885.53;5049793;28;20048;-64
2023/10/20 10:14:22;;;;;;;8.07;4.73;;;;;;;14.75;100.00;93894.22;5039770;28;20519;-64
2023/10/20 10:16:53;;;;;;;7.70;4.22;;;;;;;14.78;100.00;93896.25;5042065;28;20463;-64
2023/10/20 10:19:25;;;;;;;7.82;4.10;;;;;;;14.94;100.00;93913.25;5049149;28;20136;-64
2023/10/20 10:21:56;;;;;;;6.82;4.38;;;;;;;15.10;100.00;93906.84;5050437;28;20132;-64
2023/10/20 10:24:25;;;;;;;;;;;;;;;15.25;100.00;93921.47;5046244;28;20063;-64
2023/10/20 10:27:06;;;;;;;8.23;3.90;;;;;;;15.33;100.00;93922.34;5050624;28;19921;-64
2023/10/20 10:29:59;;;;;;;7.45;4.28;;;;;;;15.39;100.00;93923.63;5043567;28;20099;-64
2023/10/20 10:32:31;;;;;;;5.75;3.33;;;;;;;15.42;100.00;93927.56;5047828;28;20049;-64
2023/10/20 10:34:59;;;;;;;6.18;3.67;;;;;;;15.41;100.00;93921.31;5049567;28;20527;-64
2023/10/20 10:37:37;;;;;;;7.25;3.47;;;;;;;15.32;100.00;93918.84;5046894;28;20041;-64
2023/10/20 10:40:10;;;;;;;5.07;3.13;;;;;;;15.50;100.00;93912.06;5044832;28;20040;-64
2023/10/20 10:42:45;;;;;;;8.05;2.95;;;;;;;15.58;100.00;93913.72;5032517;28;20076;-64
2023/10/20 10:45:14;;;;;;;5.80;3.17;;;;;;;15.60;100.00;93912.22;5043373;28;20048;-64
2023/10/20 10:47:41;;;;;;;7.43;2.95;;;;;;;15.60;100.00;93920.38;5050883;28;20143;-64
2023/10/20 10:50:10;;;;;;;5.35;3.38;;;;;;;15.67;100.00;93933.31;5042035;28;20037;-64
2023/10/20 10:52:37;;;;;;;5.45;3.15;;;;;;;15.67;100.00;93941.50;5046208;28;20045;-64
2023/10/20 10:55:04;;;;;;;5.50;2.50;;;;;;;15.69;100.00;93939.22;5041303;28;21290;-64
2023/10/20 10:57:31;;;;;;;4.25;2.20;;;;;;;15.66;100.00;93941.91;5048459;28;20048;-63
2023/10/20 10:59:57;;;;;;;4.78;2.15;;;;;;;15.73;100.00;93937.31;5043829;28;20040;-63
2023/10/20 11:02:28;;;;;;;4.22;1.88;;;;;;;15.77;100.00;93937.34;5046627;28;20047;-64
2023/10/20 11:04:54;;;;;;;2.47;1.45;;;;;;;15.86;100.00;93934.34;5037536;28;20584;-64
2023/10/20 11:07:22;;;;;;;2.60;1.10;;;;;;;15.93;100.00;93928.19;5046643;28;20139;-64
2023/10/20 11:09:48;;;;;;;2.13;0.90;;;;;;;16.06;100.00;93939.66;5045982;28;20037;-64
2023/10/20 11:12:15;;;;;;;1.73;0.75;;;;;;;16.11;100.00;93944.81;5043656;28;20057;-64
2023/10/20 11:14:44;;;;;;;1.75;0.60;;;;;;;16.12;100.00;93949.13;5044996;28;20047;-64
2023/10/20 11:17:13;;;;;;;1.40;0.40;;;;;;;16.16;100.00;93943.69;5047663;28;20049;-64
2023/10/20 11:19:39;;;;;;;3.20;0.40;;;;;;;16.11;100.00;93955.72;5041385;28;20084;-65
2023/10/20 11:22:17;;;;;;;2.08;0.30;;;;;;;16.03;100.00;93965.00;5049726;28;20064;-64
2023/10/20 11:24:53;;;;;;;0.88;0.50;;;;;;;15.98;100.00;93957.91;5039576;28;20034;-64
2023/10/20 11:27:20;;;;;;;1.17;0.60;;;;;;;15.99;100.00;93970.38;5043427;28;20231;-64
2023/10/20 11:29:49;;;;;;;0.80;0.40;;;;;;;15.96;100.00;93966.47;5047431;28;20072;-64
2023/10/20 11:32:25;;;;;;;0.17;0.17;;;;;;;16.03;100.00;93984.84;5041332;28;20052;-64
2023/10/20 11:34:52;;;;;;;0.93;0.38;;;;;;;16.10;100.00;93978.69;5049631;28;20539;-64
2023/10/20 11:37:19;;;;;;;0.63;0.30;;;;;;;16.11;100.00;93977.56;5057831;28;20044;-64
2023/10/20 11:39:45;;;;;;;0.50;0.30;;;;;;;16.10;100.00;93978.69;5047395;28;20144;-65
2023/10/20 11:42:12;;;;;;;0.77;0.47;;;;;;;16.02;100.00;93988.75;5043278;28;20052;-64
2023/10/20 11:44:39;;;;;;;3.55;0.52;;;;;;;15.94;100.00;93989.78;5042809;28;20048;-64
2023/10/20 11:47:06;;;;;;;1.83;0.25;;;;;;;15.93;100.00;93989.00;5047665;28;20124;-64
2023/10/20 11:49:33;;;;;;;0.85;0.35;;;;;;;15.94;100.00;93995.25;5039386;28;20049;-64
2023/10/20 11:52:00;;;;;;;1.35;0.50;;;;;;;15.97;100.00;93995.34;5048732;28;20037;-64